Glenville, New York
Current Conditions -  °F | °C
As of 2:35 AM on Thursday 23 Oct 2014 (Local Time) from KNY0 Reporting Station
Overcast Overcast  
Wind Chill: 46°   Ceiling: 2900
Heat Index: 46°   Visibility: 10mi
Dew Point: 44°   Wind: 3mph
Humidity: 92%   Direction: 290°WNW
Pressure: 29.92"   Gusts: NA
Location:  42.9294°N, 74.0527°W
Report Text: KNY0 230635Z AUTO 29003KT 10SM OVC029 08/07 A2992 RMK AO2 P0003 T00790066
Loading
Personal Weather Stations






























Interactive Weather Map New forecast layout! Learn more

10-Day Weather Forecast

Advertisements
Track Severe Weather on mobile